sensor_id;sensor_type;location;lat;lon;timestamp;P1;durP1;ratioP1;P2;durP2;ratioP2
26050;SDS011;13825;53.496;10.020;2023-02-22T00:09:00;20.47;;;9.40;;
26050;SDS011;13825;53.496;10.020;2023-02-22T00:12:09;25.77;;;10.70;;
26050;SDS011;13825;53.496;10.020;2023-02-22T00:14:50;25.80;;;10.47;;
26050;SDS011;13825;53.496;10.020;2023-02-22T00:24:31;32.93;;;12.27;;
26050;SDS011;13825;53.496;10.020;2023-02-22T00:30:36;28.60;;;12.50;;
26050;SDS011;13825;53.496;10.020;2023-02-22T00:33:30;31.90;;;12.20;;
26050;SDS011;13825;53.496;10.020;2023-02-22T00:36:47;32.13;;;13.30;;
26050;SDS011;13825;53.496;10.020;2023-02-22T00:40:06;34.90;;;12.60;;
26050;SDS011;13825;53.496;10.020;2023-02-22T00:46:00;32.07;;;12.67;;
26050;SDS011;13825;53.496;10.020;2023-02-22T00:52:41;30.80;;;12.43;;
26050;SDS011;13825;53.496;10.020;2023-02-22T01:08:22;35.83;;;14.53;;
26050;SDS011;13825;53.496;10.020;2023-02-22T01:18:03;37.33;;;14.03;;
26050;SDS011;13825;53.496;10.020;2023-02-22T01:41:21;42.03;;;15.17;;
26050;SDS011;13825;53.496;10.020;2023-02-22T01:44:29;34.43;;;14.57;;
26050;SDS011;13825;53.496;10.020;2023-02-22T01:47:18;38.87;;;14.93;;
26050;SDS011;13825;53.496;10.020;2023-02-22T01:49:58;36.63;;;14.43;;
26050;SDS011;13825;53.496;10.020;2023-02-22T01:56:14;37.00;;;14.80;;
26050;SDS011;13825;53.496;10.020;2023-02-22T01:59:19;38.07;;;14.53;;
26050;SDS011;13825;53.496;10.020;2023-02-22T02:02:04;44.20;;;14.83;;
26050;SDS011;13825;53.496;10.020;2023-02-22T02:07:23;40.87;;;16.67;;
26050;SDS011;13825;53.496;10.020;2023-02-22T02:10:09;38.63;;;13.80;;
26050;SDS011;13825;53.496;10.020;2023-02-22T02:12:57;37.10;;;14.57;;
26050;SDS011;13825;53.496;10.020;2023-02-22T02:15:47;38.13;;;12.40;;
26050;SDS011;13825;53.496;10.020;2023-02-22T02:18:23;37.60;;;12.83;;
26050;SDS011;13825;53.496;10.020;2023-02-22T02:27:33;38.47;;;11.53;;
26050;SDS011;13825;53.496;10.020;2023-02-22T02:34:15;36.80;;;11.63;;
26050;SDS011;13825;53.496;10.020;2023-02-22T02:41:21;36.20;;;11.67;;
26050;SDS011;13825;53.496;10.020;2023-02-22T02:44:12;40.10;;;11.83;;
26050;SDS011;13825;53.496;10.020;2023-02-22T02:47:03;37.33;;;11.53;;
26050;SDS011;13825;53.496;10.020;2023-02-22T03:00:22;43.03;;;11.37;;
26050;SDS011;13825;53.496;10.020;2023-02-22T03:16:02;39.87;;;12.27;;
26050;SDS011;13825;53.496;10.020;2023-02-22T03:18:57;33.37;;;11.00;;
26050;SDS011;13825;53.496;10.020;2023-02-22T03:22:10;29.87;;;10.63;;
26050;SDS011;13825;53.496;10.020;2023-02-22T03:25:13;37.83;;;11.20;;
26050;SDS011;13825;53.496;10.020;2023-02-22T03:28:00;41.17;;;11.83;;
26050;SDS011;13825;53.496;10.020;2023-02-22T03:31:09;47.43;;;13.07;;
26050;SDS011;13825;53.496;10.020;2023-02-22T03:37:47;31.77;;;11.60;;
26050;SDS011;13825;53.496;10.020;2023-02-22T03:40:29;38.93;;;12.37;;
26050;SDS011;13825;53.496;10.020;2023-02-22T03:46:55;29.37;;;12.40;;
26050;SDS011;13825;53.496;10.020;2023-02-22T03:53:33;32.07;;;11.70;;
26050;SDS011;13825;53.496;10.020;2023-02-22T03:56:59;26.37;;;11.10;;
26050;SDS011;13825;53.496;10.020;2023-02-22T03:59:59;33.50;;;12.43;;
26050;SDS011;13825;53.496;10.020;2023-02-22T04:02:53;29.67;;;11.37;;
26050;SDS011;13825;53.496;10.020;2023-02-22T04:05:46;28.43;;;11.70;;
26050;SDS011;13825;53.496;10.020;2023-02-22T04:08:33;30.23;;;11.07;;
26050;SDS011;13825;53.496;10.020;2023-02-22T04:11:10;29.00;;;11.27;;
26050;SDS011;13825;53.496;10.020;2023-02-22T04:14:12;28.90;;;10.83;;
26050;SDS011;13825;53.496;10.020;2023-02-22T04:20:57;24.30;;;10.07;;
26050;SDS011;13825;53.496;10.020;2023-02-22T04:23:44;28.03;;;10.30;;
26050;SDS011;13825;53.496;10.020;2023-02-22T04:26:36;28.10;;;10.60;;
26050;SDS011;13825;53.496;10.020;2023-02-22T04:29:41;22.93;;;9.57;;
26050;SDS011;13825;53.496;10.020;2023-02-22T04:32:31;26.70;;;9.63;;
26050;SDS011;13825;53.496;10.020;2023-02-22T04:35:47;24.73;;;9.97;;
26050;SDS011;13825;53.496;10.020;2023-02-22T04:38:55;24.13;;;9.83;;
26050;SDS011;13825;53.496;10.020;2023-02-22T04:41:31;27.23;;;9.80;;
26050;SDS011;13825;53.496;10.020;2023-02-22T04:47:55;27.57;;;9.80;;
26050;SDS011;13825;53.496;10.020;2023-02-22T04:50:52;27.97;;;11.00;;
26050;SDS011;13825;53.496;10.020;2023-02-22T05:38:38;44.17;;;11.70;;
26050;SDS011;13825;53.496;10.020;2023-02-22T05:42:00;35.83;;;11.53;;
26050;SDS011;13825;53.496;10.020;2023-02-22T06:18:34;44.57;;;11.90;;
26050;SDS011;13825;53.496;10.020;2023-02-22T06:21:09;53.93;;;13.47;;
26050;SDS011;13825;53.496;10.020;2023-02-22T06:23:56;37.70;;;11.93;;
26050;SDS011;13825;53.496;10.020;2023-02-22T06:33:22;46.53;;;13.03;;
26050;SDS011;13825;53.496;10.020;2023-02-22T06:42:37;39.37;;;13.27;;
26050;SDS011;13825;53.496;10.020;2023-02-22T06:45:44;39.03;;;11.83;;
26050;SDS011;13825;53.496;10.020;2023-02-22T06:49:38;46.90;;;13.03;;
26050;SDS011;13825;53.496;10.020;2023-02-22T06:51:56;41.23;;;11.93;;
26050;SDS011;13825;53.496;10.020;2023-02-22T07:12:42;39.40;;;11.47;;
26050;SDS011;13825;53.496;10.020;2023-02-22T07:15:09;40.00;;;11.90;;
26050;SDS011;13825;53.496;10.020;2023-02-22T07:28:10;36.47;;;10.97;;
26050;SDS011;13825;53.496;10.020;2023-02-22T07:35:50;34.00;;;10.03;;
26050;SDS011;13825;53.496;10.020;2023-02-22T07:38:19;25.47;;;10.43;;
26050;SDS011;13825;53.496;10.020;2023-02-22T08:09:45;36.00;;;10.70;;
26050;SDS011;13825;53.496;10.020;2023-02-22T08:21:43;32.10;;;10.30;;
26050;SDS011;13825;53.496;10.020;2023-02-22T08:27:29;37.90;;;11.17;;
26050;SDS011;13825;53.496;10.020;2023-02-22T09:55:59;29.23;;;11.20;;
26050;SDS011;13825;53.496;10.020;2023-02-22T09:58:43;35.67;;;12.57;;
26050;SDS011;13825;53.496;10.020;2023-02-22T10:01:40;31.30;;;11.30;;
26050;SDS011;13825;53.496;10.020;2023-02-22T10:04:23;35.33;;;11.97;;
26050;SDS011;13825;53.496;10.020;2023-02-22T10:07:14;32.47;;;12.40;;
26050;SDS011;13825;53.496;10.020;2023-02-22T10:11:43;31.07;;;11.63;;
26050;SDS011;13825;53.496;10.020;2023-02-22T10:13:13;32.70;;;10.37;;
26050;SDS011;13825;53.496;10.020;2023-02-22T10:16:37;35.27;;;11.57;;
26050;SDS011;13825;53.496;10.020;2023-02-22T10:19:52;25.10;;;10.77;;
26050;SDS011;13825;53.496;10.020;2023-02-22T10:26:12;28.00;;;12.03;;
26050;SDS011;13825;53.496;10.020;2023-02-22T10:29:06;31.27;;;12.27;;
26050;SDS011;13825;53.496;10.020;2023-02-22T10:31:50;31.97;;;13.27;;
26050;SDS011;13825;53.496;10.020;2023-02-22T10:34:35;32.37;;;11.93;;
26050;SDS011;13825;53.496;10.020;2023-02-22T10:37:26;28.30;;;11.73;;
26050;SDS011;13825;53.496;10.020;2023-02-22T10:40:14;29.40;;;13.13;;
26050;SDS011;13825;53.496;10.020;2023-02-22T10:43:01;28.37;;;12.37;;
26050;SDS011;13825;53.496;10.020;2023-02-22T10:45:47;28.63;;;12.73;;
26050;SDS011;13825;53.496;10.020;2023-02-22T10:48:36;30.20;;;13.07;;
26050;SDS011;13825;53.496;10.020;2023-02-22T10:51:18;28.97;;;12.47;;
26050;SDS011;13825;53.496;10.020;2023-02-22T10:53:54;27.97;;;12.83;;
26050;SDS011;13825;53.496;10.020;2023-02-22T10:56:45;29.17;;;13.00;;
26050;SDS011;13825;53.496;10.020;2023-02-22T11:05:08;26.03;;;12.27;;
26050;SDS011;13825;53.496;10.020;2023-02-22T11:08:13;25.97;;;12.43;;
26050;SDS011;13825;53.496;10.020;2023-02-22T11:10:43;23.50;;;12.00;;
26050;SDS011;13825;53.496;10.020;2023-02-22T11:13:26;24.00;;;12.53;;
26050;SDS011;13825;53.496;10.020;2023-02-22T11:16:16;25.33;;;12.17;;
26050;SDS011;13825;53.496;10.020;2023-02-22T11:22:36;24.47;;;12.87;;
26050;SDS011;13825;53.496;10.020;2023-02-22T11:25:26;19.73;;;11.77;;
26050;SDS011;13825;53.496;10.020;2023-02-22T11:31:41;26.50;;;12.63;;
26050;SDS011;13825;53.496;10.020;2023-02-22T12:11:28;18.90;;;9.67;;
26050;SDS011;13825;53.496;10.020;2023-02-22T12:38:04;14.83;;;8.23;;
26050;SDS011;13825;53.496;10.020;2023-02-22T12:44:45;17.23;;;8.73;;
26050;SDS011;13825;53.496;10.020;2023-02-22T13:05:01;13.13;;;7.90;;
26050;SDS011;13825;53.496;10.020;2023-02-22T13:11:47;15.70;;;8.47;;
26050;SDS011;13825;53.496;10.020;2023-02-22T13:18:25;15.37;;;8.37;;
26050;SDS011;13825;53.496;10.020;2023-02-22T13:22:54;13.03;;;7.67;;
26050;SDS011;13825;53.496;10.020;2023-02-22T13:25:05;14.00;;;7.97;;
26050;SDS011;13825;53.496;10.020;2023-02-22T13:27:52;13.90;;;7.80;;
26050;SDS011;13825;53.496;10.020;2023-02-22T13:30:34;14.90;;;8.27;;
26050;SDS011;13825;53.496;10.020;2023-02-22T13:33:18;14.40;;;7.87;;
26050;SDS011;13825;53.496;10.020;2023-02-22T13:36:30;13.30;;;8.03;;
26050;SDS011;13825;53.496;10.020;2023-02-22T13:42:34;13.87;;;7.93;;
26050;SDS011;13825;53.496;10.020;2023-02-22T13:45:51;15.10;;;7.53;;
26050;SDS011;13825;53.496;10.020;2023-02-22T13:48:55;14.30;;;7.47;;
26050;SDS011;13825;53.496;10.020;2023-02-22T13:51:59;12.33;;;7.03;;
26050;SDS011;13825;53.496;10.020;2023-02-22T13:54:33;13.63;;;7.53;;
26050;SDS011;13825;53.496;10.020;2023-02-22T13:57:37;13.23;;;7.53;;
26050;SDS011;13825;53.496;10.020;2023-02-22T14:00:37;11.97;;;7.37;;
26050;SDS011;13825;53.496;10.020;2023-02-22T14:03:44;14.03;;;7.33;;
26050;SDS011;13825;53.496;10.020;2023-02-22T14:09:40;14.23;;;7.53;;
26050;SDS011;13825;53.496;10.020;2023-02-22T14:15:19;13.13;;;7.30;;
26050;SDS011;13825;53.496;10.020;2023-02-22T14:21:03;12.83;;;7.10;;
26050;SDS011;13825;53.496;10.020;2023-02-22T14:23:45;11.60;;;7.00;;
26050;SDS011;13825;53.496;10.020;2023-02-22T14:26:22;12.97;;;7.10;;
26050;SDS011;13825;53.496;10.020;2023-02-22T14:28:54;12.23;;;7.47;;
26050;SDS011;13825;53.496;10.020;2023-02-22T14:31:57;13.80;;;7.37;;
26050;SDS011;13825;53.496;10.020;2023-02-22T14:37:26;15.27;;;7.30;;
26050;SDS011;13825;53.496;10.020;2023-02-22T14:40:19;12.30;;;7.20;;
26050;SDS011;13825;53.496;10.020;2023-02-22T14:42:59;12.43;;;7.00;;
26050;SDS011;13825;53.496;10.020;2023-02-22T14:45:38;11.33;;;7.20;;
26050;SDS011;13825;53.496;10.020;2023-02-22T14:48:20;11.57;;;7.37;;
26050;SDS011;13825;53.496;10.020;2023-02-22T14:51:12;13.53;;;7.23;;
26050;SDS011;13825;53.496;10.020;2023-02-22T14:53:55;12.87;;;7.40;;
26050;SDS011;13825;53.496;10.020;2023-02-22T14:56:32;12.70;;;7.40;;
26050;SDS011;13825;53.496;10.020;2023-02-22T14:59:22;12.60;;;7.63;;
26050;SDS011;13825;53.496;10.020;2023-02-22T15:02:08;15.30;;;8.00;;
26050;SDS011;13825;53.496;10.020;2023-02-22T15:05:01;16.27;;;8.80;;
26050;SDS011;13825;53.496;10.020;2023-02-22T15:07:37;12.63;;;7.50;;
26050;SDS011;13825;53.496;10.020;2023-02-22T15:11:00;15.20;;;7.67;;
26050;SDS011;13825;53.496;10.020;2023-02-22T15:14:14;13.80;;;8.00;;
26050;SDS011;13825;53.496;10.020;2023-02-22T15:27:22;11.40;;;7.30;;
26050;SDS011;13825;53.496;10.020;2023-02-22T15:33:23;15.63;;;7.20;;
26050;SDS011;13825;53.496;10.020;2023-02-22T15:48:46;15.67;;;7.13;;
26050;SDS011;13825;53.496;10.020;2023-02-22T15:52:05;13.80;;;7.67;;
26050;SDS011;13825;53.496;10.020;2023-02-22T15:54:49;13.63;;;7.87;;
26050;SDS011;13825;53.496;10.020;2023-02-22T15:57:18;17.20;;;8.10;;
26050;SDS011;13825;53.496;10.020;2023-02-22T16:00:00;15.93;;;7.70;;
26050;SDS011;13825;53.496;10.020;2023-02-22T16:02:32;16.00;;;8.10;;
26050;SDS011;13825;53.496;10.020;2023-02-22T16:11:19;15.67;;;8.33;;
26050;SDS011;13825;53.496;10.020;2023-02-22T16:13:54;18.50;;;8.63;;
26050;SDS011;13825;53.496;10.020;2023-02-22T16:16:26;14.70;;;8.37;;
26050;SDS011;13825;53.496;10.020;2023-02-22T16:22:01;22.17;;;8.97;;
26050;SDS011;13825;53.496;10.020;2023-02-22T16:24:39;15.60;;;8.87;;
26050;SDS011;13825;53.496;10.020;2023-02-22T16:27:22;15.97;;;9.27;;
26050;SDS011;13825;53.496;10.020;2023-02-22T16:30:00;18.30;;;8.10;;
26050;SDS011;13825;53.496;10.020;2023-02-22T16:32:28;18.63;;;8.67;;
26050;SDS011;13825;53.496;10.020;2023-02-22T16:35:01;16.00;;;8.20;;
26050;SDS011;13825;53.496;10.020;2023-02-22T16:37:28;17.93;;;8.70;;
26050;SDS011;13825;53.496;10.020;2023-02-22T16:39:55;16.07;;;8.30;;
26050;SDS011;13825;53.496;10.020;2023-02-22T16:42:29;17.13;;;9.00;;
26050;SDS011;13825;53.496;10.020;2023-02-22T16:45:01;16.57;;;8.27;;
26050;SDS011;13825;53.496;10.020;2023-02-22T16:47:41;14.17;;;8.80;;
26050;SDS011;13825;53.496;10.020;2023-02-22T16:50:17;15.60;;;8.47;;
26050;SDS011;13825;53.496;10.020;2023-02-22T16:52:49;18.20;;;9.30;;
26050;SDS011;13825;53.496;10.020;2023-02-22T17:01:07;21.83;;;9.27;;
26050;SDS011;13825;53.496;10.020;2023-02-22T17:03:49;14.70;;;8.17;;
26050;SDS011;13825;53.496;10.020;2023-02-22T17:06:19;20.00;;;8.93;;
26050;SDS011;13825;53.496;10.020;2023-02-22T17:08:46;16.93;;;8.77;;
26050;SDS011;13825;53.496;10.020;2023-02-22T17:11:16;15.60;;;8.50;;
26050;SDS011;13825;53.496;10.020;2023-02-22T17:13:47;19.80;;;9.93;;
26050;SDS011;13825;53.496;10.020;2023-02-22T17:16:16;18.60;;;8.83;;
26050;SDS011;13825;53.496;10.020;2023-02-22T17:18:43;21.27;;;9.33;;
26050;SDS011;13825;53.496;10.020;2023-02-22T17:21:11;19.47;;;8.70;;
26050;SDS011;13825;53.496;10.020;2023-02-22T17:23:38;16.07;;;8.53;;
26050;SDS011;13825;53.496;10.020;2023-02-22T17:26:05;18.03;;;9.37;;
26050;SDS011;13825;53.496;10.020;2023-02-22T17:28:32;17.00;;;8.63;;
26050;SDS011;13825;53.496;10.020;2023-02-22T17:31:00;17.97;;;9.00;;
26050;SDS011;13825;53.496;10.020;2023-02-22T17:34:40;16.70;;;8.93;;
26050;SDS011;13825;53.496;10.020;2023-02-22T17:37:15;18.07;;;8.23;;
26050;SDS011;13825;53.496;10.020;2023-02-22T17:39:42;17.13;;;8.47;;
26050;SDS011;13825;53.496;10.020;2023-02-22T17:42:09;20.23;;;9.33;;
26050;SDS011;13825;53.496;10.020;2023-02-22T17:44:42;22.43;;;9.03;;
26050;SDS011;13825;53.496;10.020;2023-02-22T17:47:09;16.83;;;7.47;;
26050;SDS011;13825;53.496;10.020;2023-02-22T17:49:36;17.87;;;8.37;;
26050;SDS011;13825;53.496;10.020;2023-02-22T17:52:04;20.10;;;9.17;;
26050;SDS011;13825;53.496;10.020;2023-02-22T17:54:31;17.70;;;7.60;;
26050;SDS011;13825;53.496;10.020;2023-02-22T17:56:59;17.53;;;8.83;;
26050;SDS011;13825;53.496;10.020;2023-02-22T17:59:29;18.27;;;8.30;;
26050;SDS011;13825;53.496;10.020;2023-02-22T18:01:59;19.30;;;9.07;;
26050;SDS011;13825;53.496;10.020;2023-02-22T18:04:33;25.47;;;9.00;;
26050;SDS011;13825;53.496;10.020;2023-02-22T18:07:11;16.90;;;7.53;;
26050;SDS011;13825;53.496;10.020;2023-02-22T18:09:44;20.70;;;8.47;;
26050;SDS011;13825;53.496;10.020;2023-02-22T18:12:11;18.63;;;8.23;;
26050;SDS011;13825;53.496;10.020;2023-02-22T18:14:38;17.93;;;8.40;;
26050;SDS011;13825;53.496;10.020;2023-02-22T18:17:08;18.33;;;8.33;;
26050;SDS011;13825;53.496;10.020;2023-02-22T18:19:40;20.13;;;9.40;;
26050;SDS011;13825;53.496;10.020;2023-02-22T18:22:10;15.20;;;7.83;;
26050;SDS011;13825;53.496;10.020;2023-02-22T18:24:42;16.50;;;8.60;;
26050;SDS011;13825;53.496;10.020;2023-02-22T18:27:09;17.07;;;8.70;;
26050;SDS011;13825;53.496;10.020;2023-02-22T18:29:39;18.30;;;8.13;;
26050;SDS011;13825;53.496;10.020;2023-02-22T18:32:16;16.40;;;8.33;;
26050;SDS011;13825;53.496;10.020;2023-02-22T18:34:54;16.17;;;8.30;;
26050;SDS011;13825;53.496;10.020;2023-02-22T18:37:25;13.63;;;7.13;;
26050;SDS011;13825;53.496;10.020;2023-02-22T18:39:53;14.43;;;7.87;;
26050;SDS011;13825;53.496;10.020;2023-02-22T18:42:21;16.53;;;8.10;;
26050;SDS011;13825;53.496;10.020;2023-02-22T18:44:49;15.80;;;8.60;;
26050;SDS011;13825;53.496;10.020;2023-02-22T18:47:17;16.53;;;8.27;;
26050;SDS011;13825;53.496;10.020;2023-02-22T18:49:44;16.17;;;7.50;;
26050;SDS011;13825;53.496;10.020;2023-02-22T18:52:14;16.83;;;9.27;;
26050;SDS011;13825;53.496;10.020;2023-02-22T18:54:43;16.37;;;7.90;;
26050;SDS011;13825;53.496;10.020;2023-02-22T18:57:11;16.03;;;8.23;;
26050;SDS011;13825;53.496;10.020;2023-02-22T18:59:38;15.67;;;7.67;;
26050;SDS011;13825;53.496;10.020;2023-02-22T19:02:05;16.23;;;7.73;;
26050;SDS011;13825;53.496;10.020;2023-02-22T19:04:36;17.13;;;7.40;;
26050;SDS011;13825;53.496;10.020;2023-02-22T19:07:03;15.33;;;8.33;;
26050;SDS011;13825;53.496;10.020;2023-02-22T19:09:31;13.93;;;7.43;;
26050;SDS011;13825;53.496;10.020;2023-02-22T19:11:59;18.07;;;8.47;;
26050;SDS011;13825;53.496;10.020;2023-02-22T19:14:26;15.43;;;7.87;;
26050;SDS011;13825;53.496;10.020;2023-02-22T19:16:53;14.80;;;8.50;;
26050;SDS011;13825;53.496;10.020;2023-02-22T19:19:25;13.63;;;7.53;;
26050;SDS011;13825;53.496;10.020;2023-02-22T19:21:52;16.83;;;8.00;;
26050;SDS011;13825;53.496;10.020;2023-02-22T19:24:21;14.37;;;7.20;;
26050;SDS011;13825;53.496;10.020;2023-02-22T19:26:48;15.40;;;8.03;;
26050;SDS011;13825;53.496;10.020;2023-02-22T19:29:29;15.50;;;8.13;;
26050;SDS011;13825;53.496;10.020;2023-02-22T19:32:02;17.17;;;8.67;;
26050;SDS011;13825;53.496;10.020;2023-02-22T19:34:30;15.23;;;7.60;;
26050;SDS011;13825;53.496;10.020;2023-02-22T19:37:08;16.87;;;8.20;;
26050;SDS011;13825;53.496;10.020;2023-02-22T19:43:08;17.73;;;8.50;;
26050;SDS011;13825;53.496;10.020;2023-02-22T19:45:40;16.10;;;8.03;;
26050;SDS011;13825;53.496;10.020;2023-02-22T19:48:08;19.83;;;8.10;;
26050;SDS011;13825;53.496;10.020;2023-02-22T19:50:36;15.60;;;7.90;;
26050;SDS011;13825;53.496;10.020;2023-02-22T19:53:13;15.10;;;8.17;;
26050;SDS011;13825;53.496;10.020;2023-02-22T19:55:42;14.27;;;8.20;;
26050;SDS011;13825;53.496;10.020;2023-02-22T19:58:22;17.30;;;8.83;;
26050;SDS011;13825;53.496;10.020;2023-02-22T20:07:03;16.30;;;8.57;;
26050;SDS011;13825;53.496;10.020;2023-02-22T20:09:48;17.27;;;8.70;;
26050;SDS011;13825;53.496;10.020;2023-02-22T20:12:44;15.83;;;7.47;;
26050;SDS011;13825;53.496;10.020;2023-02-22T20:15:24;15.90;;;8.23;;
26050;SDS011;13825;53.496;10.020;2023-02-22T20:18:16;16.33;;;8.10;;
26050;SDS011;13825;53.496;10.020;2023-02-22T20:20:51;16.80;;;7.93;;
26050;SDS011;13825;53.496;10.020;2023-02-22T20:27:16;15.30;;;7.70;;
26050;SDS011;13825;53.496;10.020;2023-02-22T20:29:50;16.93;;;8.50;;
26050;SDS011;13825;53.496;10.020;2023-02-22T20:44:53;20.33;;;8.97;;
26050;SDS011;13825;53.496;10.020;2023-02-22T20:47:53;14.00;;;8.53;;
26050;SDS011;13825;53.496;10.020;2023-02-22T20:50:45;17.73;;;8.63;;
26050;SDS011;13825;53.496;10.020;2023-02-22T20:54:07;19.53;;;8.87;;
26050;SDS011;13825;53.496;10.020;2023-02-22T20:56:43;17.57;;;8.47;;
26050;SDS011;13825;53.496;10.020;2023-02-22T20:59:14;19.70;;;8.47;;
26050;SDS011;13825;53.496;10.020;2023-02-22T21:01:58;15.90;;;8.53;;
26050;SDS011;13825;53.496;10.020;2023-02-22T21:04:44;14.47;;;8.37;;
26050;SDS011;13825;53.496;10.020;2023-02-22T21:07:22;15.73;;;7.93;;
26050;SDS011;13825;53.496;10.020;2023-02-22T21:10:05;17.07;;;8.50;;
26050;SDS011;13825;53.496;10.020;2023-02-22T21:12:38;16.83;;;7.97;;
26050;SDS011;13825;53.496;10.020;2023-02-22T21:15:17;17.47;;;8.43;;
26050;SDS011;13825;53.496;10.020;2023-02-22T21:21:09;16.67;;;8.50;;
26050;SDS011;13825;53.496;10.020;2023-02-22T21:24:05;13.93;;;8.40;;
26050;SDS011;13825;53.496;10.020;2023-02-22T21:26:53;20.37;;;8.90;;
26050;SDS011;13825;53.496;10.020;2023-02-22T21:29:33;14.77;;;7.73;;
26050;SDS011;13825;53.496;10.020;2023-02-22T21:32:27;17.20;;;8.00;;
26050;SDS011;13825;53.496;10.020;2023-02-22T21:38:51;18.83;;;9.17;;
26050;SDS011;13825;53.496;10.020;2023-02-22T21:42:02;14.57;;;8.10;;
26050;SDS011;13825;53.496;10.020;2023-02-22T21:44:33;18.20;;;8.23;;
26050;SDS011;13825;53.496;10.020;2023-02-22T21:47:28;16.67;;;8.77;;
26050;SDS011;13825;53.496;10.020;2023-02-22T21:50:16;21.27;;;8.70;;
26050;SDS011;13825;53.496;10.020;2023-02-22T21:52:47;19.17;;;8.67;;
26050;SDS011;13825;53.496;10.020;2023-02-22T21:55:38;18.23;;;9.07;;
26050;SDS011;13825;53.496;10.020;2023-02-22T21:58:14;25.47;;;9.77;;
26050;SDS011;13825;53.496;10.020;2023-02-22T22:00:55;19.13;;;9.60;;
26050;SDS011;13825;53.496;10.020;2023-02-22T22:03:36;15.77;;;8.17;;
26050;SDS011;13825;53.496;10.020;2023-02-22T22:06:53;17.40;;;9.37;;
26050;SDS011;13825;53.496;10.020;2023-02-22T22:09:39;18.53;;;9.37;;
26050;SDS011;13825;53.496;10.020;2023-02-22T22:15:28;17.97;;;8.90;;
26050;SDS011;13825;53.496;10.020;2023-02-22T22:18:16;21.40;;;9.43;;
26050;SDS011;13825;53.496;10.020;2023-02-22T22:20:53;20.40;;;9.87;;
26050;SDS011;13825;53.496;10.020;2023-02-22T22:23:59;18.63;;;9.10;;
26050;SDS011;13825;53.496;10.020;2023-02-22T22:26:56;17.83;;;9.87;;
26050;SDS011;13825;53.496;10.020;2023-02-22T22:29:43;19.17;;;8.87;;
26050;SDS011;13825;53.496;10.020;2023-02-22T22:32:26;20.33;;;8.67;;
26050;SDS011;13825;53.496;10.020;2023-02-22T22:35:30;20.03;;;9.13;;
26050;SDS011;13825;53.496;10.020;2023-02-22T22:38:10;15.73;;;8.90;;
26050;SDS011;13825;53.496;10.020;2023-02-22T22:40:57;19.07;;;9.07;;
26050;SDS011;13825;53.496;10.020;2023-02-22T22:50:21;19.57;;;8.47;;
26050;SDS011;13825;53.496;10.020;2023-02-22T22:52:58;20.93;;;9.37;;
26050;SDS011;13825;53.496;10.020;2023-02-22T22:55:45;18.97;;;8.83;;
26050;SDS011;13825;53.496;10.020;2023-02-22T22:58:17;21.33;;;9.03;;
26050;SDS011;13825;53.496;10.020;2023-02-22T23:01:00;17.63;;;8.37;;
26050;SDS011;13825;53.496;10.020;2023-02-22T23:06:51;16.80;;;8.40;;
26050;SDS011;13825;53.496;10.020;2023-02-22T23:09:28;20.23;;;9.03;;
26050;SDS011;13825;53.496;10.020;2023-02-22T23:12:09;20.70;;;8.90;;
26050;SDS011;13825;53.496;10.020;2023-02-22T23:17:39;18.93;;;8.80;;
26050;SDS011;13825;53.496;10.020;2023-02-22T23:20:13;19.73;;;8.17;;
26050;SDS011;13825;53.496;10.020;2023-02-22T23:25:59;22.20;;;9.07;;
26050;SDS011;13825;53.496;10.020;2023-02-22T23:28:37;15.67;;;8.27;;
26050;SDS011;13825;53.496;10.020;2023-02-22T23:31:27;17.83;;;9.53;;
26050;SDS011;13825;53.496;10.020;2023-02-22T23:34:12;16.80;;;8.30;;
26050;SDS011;13825;53.496;10.020;2023-02-22T23:36:57;16.60;;;8.43;;
26050;SDS011;13825;53.496;10.020;2023-02-22T23:39:38;16.47;;;7.73;;
26050;SDS011;13825;53.496;10.020;2023-02-22T23:42:15;19.10;;;8.43;;
26050;SDS011;13825;53.496;10.020;2023-02-22T23:44:58;15.07;;;7.93;;
26050;SDS011;13825;53.496;10.020;2023-02-22T23:47:48;13.27;;;7.20;;
